Terminal Aerodrome Forecast
Issued by NWS

Home | Current Version | Previous Version | Text Only | Print | Product List | Glossary On
Versions: 1 2 3 4 5 6 7 8 9 10 11 12 13 14 15 16 17 18 19 20
000
FTUS43 KIND 170500
TAFBMG
TAF
KBMG 170521Z 1706/1806 00000KT 1SM BR SCT002
      TEMPO 1706/1708 1/4SM FG VV002
     FM170800 00000KT 1/4SM FG VV002
     FM171300 00000KT 1SM BR BCFG SCT002
     FM171400 VRB03KT P6SM SCT025
     FM171700 25004KT P6SM BKN050
      AMD LTD TO CLD VIS AND WIND TIL 171300=

USA.gov is the U.S. government's official web portal to all federal, state and local government web resources and services.